sensor_id;sensor_type;location;lat;lon;timestamp;P1;durP1;ratioP1;P2;durP2;ratioP2
55684;SDS011;41883;49.544;8.646;2022-12-20T00:01:10;17.10;;;10.18;;
55684;SDS011;41883;49.544;8.646;2022-12-20T00:03:36;16.00;;;10.52;;
55684;SDS011;41883;49.544;8.646;2022-12-20T00:06:01;19.77;;;11.80;;
55684;SDS011;41883;49.544;8.646;2022-12-20T00:08:26;21.70;;;13.50;;
55684;SDS011;41883;49.544;8.646;2022-12-20T00:10:51;20.90;;;13.27;;
55684;SDS011;41883;49.544;8.646;2022-12-20T00:13:16;22.70;;;14.30;;
55684;SDS011;41883;49.544;8.646;2022-12-20T00:15:42;18.10;;;10.97;;
55684;SDS011;41883;49.544;8.646;2022-12-20T00:18:07;18.27;;;11.48;;
55684;SDS011;41883;49.544;8.646;2022-12-20T00:20:32;18.90;;;13.07;;
55684;SDS011;41883;49.544;8.646;2022-12-20T00:22:57;19.90;;;11.90;;
55684;SDS011;41883;49.544;8.646;2022-12-20T00:25:23;18.47;;;12.53;;
55684;SDS011;41883;49.544;8.646;2022-12-20T00:27:48;19.83;;;13.30;;
55684;SDS011;41883;49.544;8.646;2022-12-20T00:30:14;20.67;;;12.95;;
55684;SDS011;41883;49.544;8.646;2022-12-20T00:32:40;22.88;;;15.02;;
55684;SDS011;41883;49.544;8.646;2022-12-20T00:35:05;20.45;;;13.05;;
55684;SDS011;41883;49.544;8.646;2022-12-20T00:37:31;23.42;;;14.38;;
55684;SDS011;41883;49.544;8.646;2022-12-20T00:39:56;23.73;;;15.30;;
55684;SDS011;41883;49.544;8.646;2022-12-20T00:42:21;25.20;;;15.00;;
55684;SDS011;41883;49.544;8.646;2022-12-20T00:44:46;23.53;;;14.10;;
55684;SDS011;41883;49.544;8.646;2022-12-20T00:47:11;19.33;;;14.10;;
55684;SDS011;41883;49.544;8.646;2022-12-20T00:49:36;18.50;;;11.97;;
55684;SDS011;41883;49.544;8.646;2022-12-20T00:52:02;13.07;;;9.10;;
55684;SDS011;41883;49.544;8.646;2022-12-20T00:54:27;19.43;;;14.13;;
55684;SDS011;41883;49.544;8.646;2022-12-20T00:56:52;18.63;;;13.25;;
55684;SDS011;41883;49.544;8.646;2022-12-20T00:59:18;19.17;;;14.07;;
55684;SDS011;41883;49.544;8.646;2022-12-20T01:01:43;17.75;;;12.50;;
55684;SDS011;41883;49.544;8.646;2022-12-20T01:04:09;15.13;;;10.65;;
55684;SDS011;41883;49.544;8.646;2022-12-20T01:06:35;19.90;;;13.65;;
55684;SDS011;41883;49.544;8.646;2022-12-20T01:09:00;21.27;;;14.48;;
55684;SDS011;41883;49.544;8.646;2022-12-20T01:11:26;20.25;;;13.43;;
55684;SDS011;41883;49.544;8.646;2022-12-20T01:13:53;18.85;;;12.80;;
55684;SDS011;41883;49.544;8.646;2022-12-20T01:16:21;23.42;;;14.43;;
55684;SDS011;41883;49.544;8.646;2022-12-20T01:18:46;18.50;;;12.07;;
55684;SDS011;41883;49.544;8.646;2022-12-20T01:21:13;17.52;;;10.70;;
55684;SDS011;41883;49.544;8.646;2022-12-20T01:23:38;18.92;;;12.73;;
55684;SDS011;41883;49.544;8.646;2022-12-20T01:26:04;20.65;;;13.77;;
55684;SDS011;41883;49.544;8.646;2022-12-20T01:28:30;21.90;;;14.57;;
55684;SDS011;41883;49.544;8.646;2022-12-20T01:30:55;21.00;;;13.82;;
55684;SDS011;41883;49.544;8.646;2022-12-20T01:33:21;20.67;;;13.75;;
55684;SDS011;41883;49.544;8.646;2022-12-20T01:38:21;17.50;;;11.80;;
55684;SDS011;41883;49.544;8.646;2022-12-20T01:40:46;16.70;;;10.57;;
55684;SDS011;41883;49.544;8.646;2022-12-20T01:43:11;18.87;;;12.30;;
55684;SDS011;41883;49.544;8.646;2022-12-20T01:45:38;17.92;;;11.15;;
55684;SDS011;41883;49.544;8.646;2022-12-20T01:48:04;17.87;;;11.83;;
55684;SDS011;41883;49.544;8.646;2022-12-20T01:50:29;16.95;;;10.57;;
55684;SDS011;41883;49.544;8.646;2022-12-20T01:52:54;18.15;;;12.15;;
55684;SDS011;41883;49.544;8.646;2022-12-20T01:55:23;16.27;;;11.25;;
55684;SDS011;41883;49.544;8.646;2022-12-20T01:57:51;16.52;;;10.02;;
55684;SDS011;41883;49.544;8.646;2022-12-20T02:00:18;17.92;;;11.73;;
55684;SDS011;41883;49.544;8.646;2022-12-20T02:02:45;22.00;;;13.68;;
55684;SDS011;41883;49.544;8.646;2022-12-20T02:05:11;18.38;;;11.35;;
55684;SDS011;41883;49.544;8.646;2022-12-20T02:07:38;15.55;;;10.15;;
55684;SDS011;41883;49.544;8.646;2022-12-20T02:10:05;15.38;;;10.27;;
55684;SDS011;41883;49.544;8.646;2022-12-20T02:12:41;16.33;;;9.95;;
55684;SDS011;41883;49.544;8.646;2022-12-20T02:20:46;14.90;;;9.38;;
55684;SDS011;41883;49.544;8.646;2022-12-20T02:23:21;17.58;;;11.45;;
55684;SDS011;41883;49.544;8.646;2022-12-20T02:30:59;16.92;;;10.77;;
55684;SDS011;41883;49.544;8.646;2022-12-20T02:33:25;17.88;;;11.23;;
55684;SDS011;41883;49.544;8.646;2022-12-20T02:35:51;15.75;;;10.65;;
55684;SDS011;41883;49.544;8.646;2022-12-20T02:38:24;15.07;;;10.90;;
55684;SDS011;41883;49.544;8.646;2022-12-20T02:40:50;15.30;;;9.68;;
55684;SDS011;41883;49.544;8.646;2022-12-20T02:43:17;16.30;;;10.27;;
55684;SDS011;41883;49.544;8.646;2022-12-20T02:46:01;17.63;;;11.18;;
55684;SDS011;41883;49.544;8.646;2022-12-20T02:48:27;15.15;;;9.75;;
55684;SDS011;41883;49.544;8.646;2022-12-20T02:50:55;12.20;;;8.30;;
55684;SDS011;41883;49.544;8.646;2022-12-20T02:53:22;14.40;;;9.35;;
55684;SDS011;41883;49.544;8.646;2022-12-20T02:55:58;13.85;;;8.68;;
55684;SDS011;41883;49.544;8.646;2022-12-20T02:58:37;12.95;;;7.95;;
55684;SDS011;41883;49.544;8.646;2022-12-20T03:01:08;15.40;;;10.10;;
55684;SDS011;41883;49.544;8.646;2022-12-20T03:03:34;16.42;;;10.50;;
55684;SDS011;41883;49.544;8.646;2022-12-20T03:06:00;11.60;;;8.10;;
55684;SDS011;41883;49.544;8.646;2022-12-20T03:08:25;14.77;;;9.80;;
55684;SDS011;41883;49.544;8.646;2022-12-20T03:10:52;13.13;;;8.07;;
55684;SDS011;41883;49.544;8.646;2022-12-20T03:13:17;14.95;;;9.57;;
55684;SDS011;41883;49.544;8.646;2022-12-20T03:15:42;14.02;;;9.50;;
55684;SDS011;41883;49.544;8.646;2022-12-20T03:18:07;12.83;;;8.17;;
55684;SDS011;41883;49.544;8.646;2022-12-20T03:20:33;16.70;;;9.50;;
55684;SDS011;41883;49.544;8.646;2022-12-20T03:22:58;14.18;;;9.45;;
55684;SDS011;41883;49.544;8.646;2022-12-20T03:25:23;13.65;;;8.10;;
55684;SDS011;41883;49.544;8.646;2022-12-20T03:27:48;11.80;;;8.13;;
55684;SDS011;41883;49.544;8.646;2022-12-20T03:30:14;10.77;;;7.50;;
55684;SDS011;41883;49.544;8.646;2022-12-20T03:32:39;12.18;;;8.20;;
55684;SDS011;41883;49.544;8.646;2022-12-20T03:35:04;14.07;;;8.87;;
55684;SDS011;41883;49.544;8.646;2022-12-20T03:37:30;14.45;;;8.98;;
55684;SDS011;41883;49.544;8.646;2022-12-20T03:39:55;12.75;;;8.75;;
55684;SDS011;41883;49.544;8.646;2022-12-20T03:42:20;14.13;;;8.97;;
55684;SDS011;41883;49.544;8.646;2022-12-20T03:44:45;13.07;;;8.00;;
55684;SDS011;41883;49.544;8.646;2022-12-20T03:47:11;15.45;;;10.18;;
55684;SDS011;41883;49.544;8.646;2022-12-20T03:49:36;12.63;;;9.43;;
55684;SDS011;41883;49.544;8.646;2022-12-20T03:52:01;16.20;;;10.07;;
55684;SDS011;41883;49.544;8.646;2022-12-20T03:54:26;15.40;;;10.13;;
55684;SDS011;41883;49.544;8.646;2022-12-20T03:56:51;16.73;;;10.43;;
55684;SDS011;41883;49.544;8.646;2022-12-20T03:59:17;16.63;;;9.70;;
55684;SDS011;41883;49.544;8.646;2022-12-20T04:01:42;16.57;;;9.40;;
55684;SDS011;41883;49.544;8.646;2022-12-20T04:04:09;13.63;;;9.20;;
55684;SDS011;41883;49.544;8.646;2022-12-20T04:13:51;11.43;;;7.53;;
55684;SDS011;41883;49.544;8.646;2022-12-20T04:16:18;9.20;;;6.63;;
55684;SDS011;41883;49.544;8.646;2022-12-20T04:18:43;7.80;;;5.55;;
55684;SDS011;41883;49.544;8.646;2022-12-20T04:21:09;7.10;;;5.20;;
55684;SDS011;41883;49.544;8.646;2022-12-20T04:23:35;7.50;;;5.40;;
55684;SDS011;41883;49.544;8.646;2022-12-20T04:26:01;12.73;;;7.22;;
55684;SDS011;41883;49.544;8.646;2022-12-20T04:28:26;9.48;;;6.85;;
55684;SDS011;41883;49.544;8.646;2022-12-20T04:30:51;11.40;;;7.90;;
55684;SDS011;41883;49.544;8.646;2022-12-20T04:33:17;9.67;;;6.93;;
55684;SDS011;41883;49.544;8.646;2022-12-20T04:35:42;11.90;;;7.87;;
55684;SDS011;41883;49.544;8.646;2022-12-20T04:38:07;9.13;;;6.97;;
55684;SDS011;41883;49.544;8.646;2022-12-20T04:40:32;9.23;;;6.63;;
55684;SDS011;41883;49.544;8.646;2022-12-20T04:42:57;9.37;;;5.70;;
55684;SDS011;41883;49.544;8.646;2022-12-20T04:45:23;10.23;;;6.72;;
55684;SDS011;41883;49.544;8.646;2022-12-20T04:47:48;9.30;;;6.15;;
55684;SDS011;41883;49.544;8.646;2022-12-20T04:50:13;12.02;;;7.05;;
55684;SDS011;41883;49.544;8.646;2022-12-20T04:52:39;9.60;;;7.33;;
55684;SDS011;41883;49.544;8.646;2022-12-20T04:55:22;10.73;;;6.50;;
55684;SDS011;41883;49.544;8.646;2022-12-20T04:57:48;9.65;;;5.95;;
55684;SDS011;41883;49.544;8.646;2022-12-20T05:00:13;8.63;;;6.03;;
55684;SDS011;41883;49.544;8.646;2022-12-20T05:02:39;10.10;;;6.72;;
55684;SDS011;41883;49.544;8.646;2022-12-20T05:05:04;11.57;;;7.43;;
55684;SDS011;41883;49.544;8.646;2022-12-20T05:07:29;9.75;;;6.18;;
55684;SDS011;41883;49.544;8.646;2022-12-20T05:09:55;11.57;;;6.80;;
55684;SDS011;41883;49.544;8.646;2022-12-20T05:12:20;8.17;;;5.87;;
55684;SDS011;41883;49.544;8.646;2022-12-20T05:14:45;12.40;;;7.75;;
55684;SDS011;41883;49.544;8.646;2022-12-20T05:17:10;12.23;;;8.03;;
55684;SDS011;41883;49.544;8.646;2022-12-20T05:19:35;9.83;;;6.20;;
55684;SDS011;41883;49.544;8.646;2022-12-20T05:22:00;9.23;;;5.97;;
55684;SDS011;41883;49.544;8.646;2022-12-20T05:24:44;10.73;;;7.45;;
55684;SDS011;41883;49.544;8.646;2022-12-20T05:27:28;7.80;;;5.88;;
55684;SDS011;41883;49.544;8.646;2022-12-20T05:29:54;11.30;;;6.82;;
55684;SDS011;41883;49.544;8.646;2022-12-20T05:32:19;10.90;;;6.83;;
55684;SDS011;41883;49.544;8.646;2022-12-20T05:34:44;9.63;;;6.57;;
55684;SDS011;41883;49.544;8.646;2022-12-20T05:37:09;12.10;;;7.60;;
55684;SDS011;41883;49.544;8.646;2022-12-20T05:39:35;9.63;;;6.73;;
55684;SDS011;41883;49.544;8.646;2022-12-20T05:42:00;10.97;;;7.37;;
55684;SDS011;41883;49.544;8.646;2022-12-20T05:44:25;9.80;;;7.27;;
55684;SDS011;41883;49.544;8.646;2022-12-20T05:46:50;12.03;;;7.43;;
55684;SDS011;41883;49.544;8.646;2022-12-20T05:49:15;11.87;;;8.10;;
55684;SDS011;41883;49.544;8.646;2022-12-20T05:51:41;11.68;;;7.93;;
55684;SDS011;41883;49.544;8.646;2022-12-20T05:54:07;12.10;;;8.50;;
55684;SDS011;41883;49.544;8.646;2022-12-20T05:56:32;13.95;;;8.63;;
55684;SDS011;41883;49.544;8.646;2022-12-20T05:58:57;11.23;;;7.90;;
55684;SDS011;41883;49.544;8.646;2022-12-20T06:01:23;11.65;;;7.85;;
55684;SDS011;41883;49.544;8.646;2022-12-20T06:03:49;13.23;;;8.55;;
55684;SDS011;41883;49.544;8.646;2022-12-20T06:06:15;12.18;;;8.07;;
55684;SDS011;41883;49.544;8.646;2022-12-20T06:08:40;11.25;;;7.72;;
55684;SDS011;41883;49.544;8.646;2022-12-20T06:11:05;11.33;;;7.90;;
55684;SDS011;41883;49.544;8.646;2022-12-20T06:13:30;11.10;;;7.95;;
55684;SDS011;41883;49.544;8.646;2022-12-20T06:15:56;12.30;;;8.17;;
55684;SDS011;41883;49.544;8.646;2022-12-20T06:18:21;13.27;;;9.10;;
55684;SDS011;41883;49.544;8.646;2022-12-20T06:20:50;13.10;;;9.10;;
55684;SDS011;41883;49.544;8.646;2022-12-20T06:23:15;13.50;;;8.43;;
55684;SDS011;41883;49.544;8.646;2022-12-20T06:25:40;11.20;;;8.15;;
55684;SDS011;41883;49.544;8.646;2022-12-20T06:28:06;13.88;;;8.77;;
55684;SDS011;41883;49.544;8.646;2022-12-20T06:30:32;13.38;;;9.18;;
55684;SDS011;41883;49.544;8.646;2022-12-20T06:32:57;12.55;;;8.85;;
55684;SDS011;41883;49.544;8.646;2022-12-20T06:35:23;13.07;;;9.03;;
55684;SDS011;41883;49.544;8.646;2022-12-20T06:37:48;15.25;;;9.43;;
55684;SDS011;41883;49.544;8.646;2022-12-20T06:40:13;16.67;;;10.07;;
55684;SDS011;41883;49.544;8.646;2022-12-20T06:42:38;15.10;;;9.80;;
55684;SDS011;41883;49.544;8.646;2022-12-20T06:45:04;15.23;;;9.82;;
55684;SDS011;41883;49.544;8.646;2022-12-20T06:47:29;15.70;;;9.35;;
55684;SDS011;41883;49.544;8.646;2022-12-20T06:49:54;13.85;;;9.85;;
55684;SDS011;41883;49.544;8.646;2022-12-20T06:52:20;16.20;;;10.40;;
55684;SDS011;41883;49.544;8.646;2022-12-20T06:54:45;15.68;;;10.00;;
55684;SDS011;41883;49.544;8.646;2022-12-20T06:57:10;16.30;;;9.80;;
55684;SDS011;41883;49.544;8.646;2022-12-20T06:59:35;13.77;;;9.40;;
55684;SDS011;41883;49.544;8.646;2022-12-20T07:02:00;13.80;;;9.17;;
55684;SDS011;41883;49.544;8.646;2022-12-20T07:04:26;15.27;;;9.33;;
55684;SDS011;41883;49.544;8.646;2022-12-20T07:06:51;12.43;;;8.05;;
55684;SDS011;41883;49.544;8.646;2022-12-20T07:09:16;13.00;;;8.67;;
55684;SDS011;41883;49.544;8.646;2022-12-20T07:11:42;11.68;;;8.40;;
55684;SDS011;41883;49.544;8.646;2022-12-20T07:14:07;12.57;;;7.70;;
55684;SDS011;41883;49.544;8.646;2022-12-20T07:16:32;12.57;;;8.18;;
55684;SDS011;41883;49.544;8.646;2022-12-20T07:18:58;11.18;;;7.20;;
55684;SDS011;41883;49.544;8.646;2022-12-20T07:21:23;10.73;;;6.97;;
55684;SDS011;41883;49.544;8.646;2022-12-20T07:23:48;14.27;;;8.43;;
55684;SDS011;41883;49.544;8.646;2022-12-20T07:26:13;9.87;;;7.27;;
55684;SDS011;41883;49.544;8.646;2022-12-20T07:28:39;7.22;;;5.75;;
55684;SDS011;41883;49.544;8.646;2022-12-20T07:31:05;8.88;;;6.50;;
55684;SDS011;41883;49.544;8.646;2022-12-20T07:33:31;8.77;;;6.30;;
55684;SDS011;41883;49.544;8.646;2022-12-20T07:36:03;10.60;;;7.70;;
55684;SDS011;41883;49.544;8.646;2022-12-20T07:38:28;12.57;;;8.80;;
55684;SDS011;41883;49.544;8.646;2022-12-20T07:40:54;12.10;;;8.35;;
55684;SDS011;41883;49.544;8.646;2022-12-20T07:43:19;12.70;;;7.85;;
55684;SDS011;41883;49.544;8.646;2022-12-20T07:45:44;12.97;;;8.47;;
55684;SDS011;41883;49.544;8.646;2022-12-20T07:48:11;10.27;;;7.68;;
55684;SDS011;41883;49.544;8.646;2022-12-20T07:50:36;12.05;;;7.30;;
55684;SDS011;41883;49.544;8.646;2022-12-20T07:53:01;10.93;;;7.07;;
55684;SDS011;41883;49.544;8.646;2022-12-20T07:55:30;10.45;;;6.57;;
55684;SDS011;41883;49.544;8.646;2022-12-20T07:57:56;9.57;;;6.63;;
55684;SDS011;41883;49.544;8.646;2022-12-20T08:00:23;7.53;;;5.45;;
55684;SDS011;41883;49.544;8.646;2022-12-20T08:02:53;11.25;;;7.30;;
55684;SDS011;41883;49.544;8.646;2022-12-20T08:07:45;13.38;;;8.25;;
55684;SDS011;41883;49.544;8.646;2022-12-20T08:10:11;14.20;;;8.20;;
55684;SDS011;41883;49.544;8.646;2022-12-20T08:12:38;12.93;;;8.00;;
55684;SDS011;41883;49.544;8.646;2022-12-20T08:15:04;10.88;;;6.68;;
55684;SDS011;41883;49.544;8.646;2022-12-20T08:17:29;9.97;;;7.43;;
55684;SDS011;41883;49.544;8.646;2022-12-20T08:19:54;8.13;;;6.10;;
55684;SDS011;41883;49.544;8.646;2022-12-20T08:22:21;10.55;;;7.40;;
55684;SDS011;41883;49.544;8.646;2022-12-20T08:24:47;11.30;;;6.90;;
55684;SDS011;41883;49.544;8.646;2022-12-20T08:27:12;9.00;;;6.60;;
55684;SDS011;41883;49.544;8.646;2022-12-20T08:29:37;9.27;;;6.10;;
55684;SDS011;41883;49.544;8.646;2022-12-20T08:32:06;11.20;;;7.38;;
55684;SDS011;41883;49.544;8.646;2022-12-20T08:34:31;12.57;;;7.95;;
55684;SDS011;41883;49.544;8.646;2022-12-20T08:36:56;11.20;;;6.85;;
55684;SDS011;41883;49.544;8.646;2022-12-20T08:39:21;9.87;;;6.30;;
55684;SDS011;41883;49.544;8.646;2022-12-20T08:41:46;8.77;;;6.40;;
55684;SDS011;41883;49.544;8.646;2022-12-20T08:44:12;13.35;;;7.85;;
55684;SDS011;41883;49.544;8.646;2022-12-20T08:46:37;11.83;;;7.70;;
55684;SDS011;41883;49.544;8.646;2022-12-20T08:49:03;11.02;;;6.65;;
55684;SDS011;41883;49.544;8.646;2022-12-20T08:51:28;9.35;;;6.20;;
55684;SDS011;41883;49.544;8.646;2022-12-20T08:53:54;9.15;;;5.53;;
55684;SDS011;41883;49.544;8.646;2022-12-20T08:56:19;8.23;;;6.20;;
55684;SDS011;41883;49.544;8.646;2022-12-20T08:58:45;10.40;;;6.45;;
55684;SDS011;41883;49.544;8.646;2022-12-20T09:01:12;10.27;;;7.03;;
55684;SDS011;41883;49.544;8.646;2022-12-20T09:03:37;9.38;;;6.18;;
55684;SDS011;41883;49.544;8.646;2022-12-20T09:06:04;9.02;;;6.25;;
55684;SDS011;41883;49.544;8.646;2022-12-20T09:08:30;11.13;;;7.05;;
55684;SDS011;41883;49.544;8.646;2022-12-20T09:11:02;9.70;;;6.63;;
55684;SDS011;41883;49.544;8.646;2022-12-20T09:13:27;7.90;;;5.43;;
55684;SDS011;41883;49.544;8.646;2022-12-20T09:15:53;7.47;;;5.27;;
55684;SDS011;41883;49.544;8.646;2022-12-20T09:18:18;7.93;;;5.40;;
55684;SDS011;41883;49.544;8.646;2022-12-20T09:20:43;7.88;;;5.00;;
55684;SDS011;41883;49.544;8.646;2022-12-20T09:23:09;6.65;;;4.80;;
55684;SDS011;41883;49.544;8.646;2022-12-20T09:25:34;7.43;;;4.95;;
55684;SDS011;41883;49.544;8.646;2022-12-20T09:28:01;8.32;;;5.47;;
55684;SDS011;41883;49.544;8.646;2022-12-20T09:30:27;8.40;;;5.00;;
55684;SDS011;41883;49.544;8.646;2022-12-20T09:32:52;6.35;;;4.35;;
55684;SDS011;41883;49.544;8.646;2022-12-20T09:35:18;8.20;;;4.72;;
55684;SDS011;41883;49.544;8.646;2022-12-20T09:37:43;6.65;;;4.43;;
55684;SDS011;41883;49.544;8.646;2022-12-20T09:40:13;6.57;;;4.53;;
55684;SDS011;41883;49.544;8.646;2022-12-20T09:42:40;6.90;;;4.47;;
55684;SDS011;41883;49.544;8.646;2022-12-20T09:45:06;6.55;;;4.40;;
55684;SDS011;41883;49.544;8.646;2022-12-20T09:47:33;7.35;;;4.00;;
55684;SDS011;41883;49.544;8.646;2022-12-20T09:50:00;7.50;;;4.28;;
55684;SDS011;41883;49.544;8.646;2022-12-20T10:00:27;7.13;;;4.20;;
55684;SDS011;41883;49.544;8.646;2022-12-20T10:02:54;6.50;;;4.50;;
55684;SDS011;41883;49.544;8.646;2022-12-20T10:05:44;6.50;;;4.63;;
55684;SDS011;41883;49.544;8.646;2022-12-20T10:14:43;8.35;;;4.55;;
55684;SDS011;41883;49.544;8.646;2022-12-20T10:20:26;5.95;;;4.38;;
55684;SDS011;41883;49.544;8.646;2022-12-20T10:23:16;5.88;;;3.97;;
55684;SDS011;41883;49.544;8.646;2022-12-20T10:25:50;8.00;;;4.47;;
55684;SDS011;41883;49.544;8.646;2022-12-20T10:28:19;6.47;;;4.03;;
55684;SDS011;41883;49.544;8.646;2022-12-20T10:30:48;5.20;;;3.55;;
55684;SDS011;41883;49.544;8.646;2022-12-20T10:33:21;5.38;;;3.55;;
55684;SDS011;41883;49.544;8.646;2022-12-20T10:35:48;6.95;;;4.28;;
55684;SDS011;41883;49.544;8.646;2022-12-20T10:38:14;6.25;;;4.10;;
55684;SDS011;41883;49.544;8.646;2022-12-20T10:40:57;6.75;;;4.30;;
55684;SDS011;41883;49.544;8.646;2022-12-20T10:43:25;7.67;;;4.23;;
55684;SDS011;41883;49.544;8.646;2022-12-20T10:46:00;8.20;;;4.03;;
55684;SDS011;41883;49.544;8.646;2022-12-20T10:53:23;6.65;;;4.05;;
55684;SDS011;41883;49.544;8.646;2022-12-20T10:55:49;5.70;;;4.18;;
55684;SDS011;41883;49.544;8.646;2022-12-20T10:58:19;5.65;;;4.22;;
55684;SDS011;41883;49.544;8.646;2022-12-20T11:01:04;6.78;;;3.97;;
55684;SDS011;41883;49.544;8.646;2022-12-20T11:03:48;6.47;;;4.32;;
55684;SDS011;41883;49.544;8.646;2022-12-20T11:06:17;6.43;;;4.38;;
55684;SDS011;41883;49.544;8.646;2022-12-20T11:08:44;5.75;;;4.25;;
55684;SDS011;41883;49.544;8.646;2022-12-20T11:11:20;6.40;;;3.83;;
55684;SDS011;41883;49.544;8.646;2022-12-20T11:13:48;7.78;;;5.25;;
55684;SDS011;41883;49.544;8.646;2022-12-20T11:21:50;5.90;;;4.00;;
55684;SDS011;41883;49.544;8.646;2022-12-20T11:35:24;7.25;;;3.85;;
55684;SDS011;41883;49.544;8.646;2022-12-20T11:38:11;6.32;;;3.45;;
55684;SDS011;41883;49.544;8.646;2022-12-20T11:49:27;7.35;;;4.30;;
55684;SDS011;41883;49.544;8.646;2022-12-20T11:54:57;7.65;;;5.00;;
55684;SDS011;41883;49.544;8.646;2022-12-20T11:57:33;6.40;;;3.90;;
55684;SDS011;41883;49.544;8.646;2022-12-20T12:00:10;7.68;;;4.10;;
55684;SDS011;41883;49.544;8.646;2022-12-20T12:02:46;6.15;;;4.00;;
55684;SDS011;41883;49.544;8.646;2022-12-20T12:05:28;5.20;;;3.75;;
55684;SDS011;41883;49.544;8.646;2022-12-20T12:08:04;6.32;;;3.78;;
55684;SDS011;41883;49.544;8.646;2022-12-20T12:10:37;8.57;;;4.70;;
55684;SDS011;41883;49.544;8.646;2022-12-20T12:13:15;6.97;;;4.30;;
55684;SDS011;41883;49.544;8.646;2022-12-20T12:15:47;6.47;;;4.32;;
55684;SDS011;41883;49.544;8.646;2022-12-20T12:18:21;5.97;;;4.32;;
55684;SDS011;41883;49.544;8.646;2022-12-20T12:20:58;5.43;;;3.90;;
55684;SDS011;41883;49.544;8.646;2022-12-20T12:26:26;7.50;;;4.60;;
55684;SDS011;41883;49.544;8.646;2022-12-20T12:29:01;6.75;;;4.40;;
55684;SDS011;41883;49.544;8.646;2022-12-20T12:31:38;6.25;;;4.15;;
55684;SDS011;41883;49.544;8.646;2022-12-20T12:45:56;7.63;;;4.78;;
55684;SDS011;41883;49.544;8.646;2022-12-20T12:50:55;7.95;;;5.07;;
55684;SDS011;41883;49.544;8.646;2022-12-20T12:53:35;9.88;;;5.55;;
55684;SDS011;41883;49.544;8.646;2022-12-20T13:15:02;7.13;;;5.03;;
55684;SDS011;41883;49.544;8.646;2022-12-20T13:17:53;10.43;;;5.18;;
55684;SDS011;41883;49.544;8.646;2022-12-20T13:20:24;7.93;;;5.00;;
55684;SDS011;41883;49.544;8.646;2022-12-20T13:25:31;6.70;;;4.53;;
55684;SDS011;41883;49.544;8.646;2022-12-20T13:33:19;6.60;;;4.22;;
55684;SDS011;41883;49.544;8.646;2022-12-20T13:36:04;5.47;;;4.00;;
55684;SDS011;41883;49.544;8.646;2022-12-20T13:38:54;7.53;;;5.00;;
55684;SDS011;41883;49.544;8.646;2022-12-20T13:44:13;7.47;;;5.07;;
55684;SDS011;41883;49.544;8.646;2022-12-20T13:46:49;6.05;;;4.10;;
55684;SDS011;41883;49.544;8.646;2022-12-20T13:49:21;5.05;;;3.78;;
55684;SDS011;41883;49.544;8.646;2022-12-20T13:54:35;7.10;;;4.43;;
55684;SDS011;41883;49.544;8.646;2022-12-20T13:57:05;5.35;;;3.63;;
55684;SDS011;41883;49.544;8.646;2022-12-20T13:59:33;6.80;;;3.63;;
55684;SDS011;41883;49.544;8.646;2022-12-20T14:01:59;4.85;;;3.15;;
55684;SDS011;41883;49.544;8.646;2022-12-20T14:04:38;7.18;;;4.43;;
55684;SDS011;41883;49.544;8.646;2022-12-20T14:07:07;5.20;;;3.70;;
55684;SDS011;41883;49.544;8.646;2022-12-20T14:09:37;5.68;;;3.15;;
55684;SDS011;41883;49.544;8.646;2022-12-20T14:12:04;7.80;;;3.53;;
55684;SDS011;41883;49.544;8.646;2022-12-20T14:14:46;5.65;;;3.70;;
55684;SDS011;41883;49.544;8.646;2022-12-20T14:17:27;7.05;;;4.05;;
55684;SDS011;41883;49.544;8.646;2022-12-20T14:20:04;7.80;;;4.63;;
55684;SDS011;41883;49.544;8.646;2022-12-20T14:22:53;6.00;;;3.97;;
55684;SDS011;41883;49.544;8.646;2022-12-20T14:25:27;6.15;;;4.20;;
55684;SDS011;41883;49.544;8.646;2022-12-20T14:27:56;6.25;;;4.22;;
55684;SDS011;41883;49.544;8.646;2022-12-20T14:30:26;7.07;;;4.80;;
55684;SDS011;41883;49.544;8.646;2022-12-20T14:32:54;7.97;;;4.70;;
55684;SDS011;41883;49.544;8.646;2022-12-20T14:35:21;8.90;;;5.07;;
55684;SDS011;41883;49.544;8.646;2022-12-20T14:37:56;15.43;;;7.18;;
55684;SDS011;41883;49.544;8.646;2022-12-20T14:40:24;8.88;;;5.18;;
55684;SDS011;41883;49.544;8.646;2022-12-20T14:42:50;13.45;;;7.15;;
55684;SDS011;41883;49.544;8.646;2022-12-20T14:47:50;13.77;;;7.82;;
55684;SDS011;41883;49.544;8.646;2022-12-20T14:50:25;20.90;;;9.05;;
55684;SDS011;41883;49.544;8.646;2022-12-20T14:52:53;20.55;;;9.65;;
55684;SDS011;41883;49.544;8.646;2022-12-20T14:55:21;28.95;;;12.45;;
55684;SDS011;41883;49.544;8.646;2022-12-20T14:58:27;26.85;;;12.65;;
55684;SDS011;41883;49.544;8.646;2022-12-20T15:00:58;22.67;;;11.23;;
55684;SDS011;41883;49.544;8.646;2022-12-20T15:03:25;23.25;;;11.07;;
55684;SDS011;41883;49.544;8.646;2022-12-20T15:05:55;24.05;;;10.73;;
55684;SDS011;41883;49.544;8.646;2022-12-20T15:08:26;21.75;;;10.68;;
55684;SDS011;41883;49.544;8.646;2022-12-20T15:10:56;24.65;;;11.60;;
55684;SDS011;41883;49.544;8.646;2022-12-20T15:13:28;21.38;;;11.80;;
55684;SDS011;41883;49.544;8.646;2022-12-20T15:15:59;19.00;;;9.20;;
55684;SDS011;41883;49.544;8.646;2022-12-20T15:18:25;20.50;;;10.07;;
55684;SDS011;41883;49.544;8.646;2022-12-20T15:21:01;17.10;;;9.27;;
55684;SDS011;41883;49.544;8.646;2022-12-20T15:23:29;20.77;;;10.20;;
55684;SDS011;41883;49.544;8.646;2022-12-20T15:25:55;18.33;;;9.60;;
55684;SDS011;41883;49.544;8.646;2022-12-20T15:28:21;17.33;;;9.15;;
55684;SDS011;41883;49.544;8.646;2022-12-20T15:30:48;15.40;;;7.95;;
55684;SDS011;41883;49.544;8.646;2022-12-20T15:35:45;11.43;;;7.50;;
55684;SDS011;41883;49.544;8.646;2022-12-20T15:38:15;13.65;;;7.00;;
55684;SDS011;41883;49.544;8.646;2022-12-20T15:40:51;12.70;;;6.78;;
55684;SDS011;41883;49.544;8.646;2022-12-20T15:43:19;11.65;;;6.40;;
55684;SDS011;41883;49.544;8.646;2022-12-20T15:45:49;10.25;;;5.85;;
55684;SDS011;41883;49.544;8.646;2022-12-20T15:48:18;7.40;;;5.50;;
55684;SDS011;41883;49.544;8.646;2022-12-20T15:50:50;9.63;;;6.40;;
55684;SDS011;41883;49.544;8.646;2022-12-20T15:53:18;8.60;;;5.68;;
55684;SDS011;41883;49.544;8.646;2022-12-20T15:56:04;11.70;;;7.32;;
55684;SDS011;41883;49.544;8.646;2022-12-20T15:58:30;11.13;;;6.85;;
55684;SDS011;41883;49.544;8.646;2022-12-20T16:00:57;9.43;;;6.07;;
55684;SDS011;41883;49.544;8.646;2022-12-20T16:03:26;14.10;;;7.75;;
55684;SDS011;41883;49.544;8.646;2022-12-20T16:05:55;12.60;;;7.63;;
55684;SDS011;41883;49.544;8.646;2022-12-20T16:08:20;11.60;;;7.68;;
55684;SDS011;41883;49.544;8.646;2022-12-20T16:10:46;16.42;;;7.63;;
55684;SDS011;41883;49.544;8.646;2022-12-20T16:13:14;10.07;;;6.40;;
55684;SDS011;41883;49.544;8.646;2022-12-20T16:15:40;11.15;;;6.90;;
55684;SDS011;41883;49.544;8.646;2022-12-20T16:18:06;9.30;;;5.32;;
55684;SDS011;41883;49.544;8.646;2022-12-20T16:20:32;10.10;;;5.97;;
55684;SDS011;41883;49.544;8.646;2022-12-20T16:22:57;7.93;;;5.45;;
55684;SDS011;41883;49.544;8.646;2022-12-20T16:25:27;8.70;;;5.60;;
55684;SDS011;41883;49.544;8.646;2022-12-20T16:27:56;10.02;;;6.32;;
55684;SDS011;41883;49.544;8.646;2022-12-20T16:30:22;8.13;;;4.97;;
55684;SDS011;41883;49.544;8.646;2022-12-20T16:32:49;9.27;;;4.78;;
55684;SDS011;41883;49.544;8.646;2022-12-20T16:37:54;9.57;;;5.18;;
55684;SDS011;41883;49.544;8.646;2022-12-20T16:40:22;7.40;;;4.57;;
55684;SDS011;41883;49.544;8.646;2022-12-20T16:42:48;9.68;;;4.88;;
55684;SDS011;41883;49.544;8.646;2022-12-20T16:45:15;7.47;;;4.53;;
55684;SDS011;41883;49.544;8.646;2022-12-20T16:47:43;9.98;;;5.07;;
55684;SDS011;41883;49.544;8.646;2022-12-20T16:50:09;8.48;;;4.93;;
55684;SDS011;41883;49.544;8.646;2022-12-20T16:52:35;14.80;;;8.35;;